sensor_id;sensor_type;location;lat;lon;timestamp;temperature;humidity
24226;DHT22;51462;51.422;5.514;2022-08-18T00:00:31;19.70;99.90
24226;DHT22;51462;51.422;5.514;2022-08-18T00:03:05;19.70;99.90
24226;DHT22;51462;51.422;5.514;2022-08-18T00:05:31;19.70;99.90
24226;DHT22;51462;51.422;5.514;2022-08-18T00:07:57;19.50;99.90
24226;DHT22;51462;51.422;5.514;2022-08-18T00:10:23;19.50;99.90
24226;DHT22;51462;51.422;5.514;2022-08-18T00:12:49;19.50;99.90
24226;DHT22;51462;51.422;5.514;2022-08-18T00:15:16;19.50;99.90
24226;DHT22;51462;51.422;5.514;2022-08-18T00:17:42;19.50;99.90
24226;DHT22;51462;51.422;5.514;2022-08-18T00:20:17;19.50;99.90
24226;DHT22;51462;51.422;5.514;2022-08-18T00:22:43;19.60;99.90
24226;DHT22;51462;51.422;5.514;2022-08-18T00:25:10;19.50;99.90
24226;DHT22;51462;51.422;5.514;2022-08-18T00:27:36;19.50;99.90
24226;DHT22;51462;51.422;5.514;2022-08-18T00:30:05;19.50;99.90
24226;DHT22;51462;51.422;5.514;2022-08-18T00:32:35;19.60;99.90
24226;DHT22;51462;51.422;5.514;2022-08-18T00:35:20;19.50;99.90
24226;DHT22;51462;51.422;5.514;2022-08-18T00:37:48;19.50;99.90
24226;DHT22;51462;51.422;5.514;2022-08-18T00:40:19;19.50;99.90
24226;DHT22;51462;51.422;5.514;2022-08-18T00:42:52;19.70;99.90
24226;DHT22;51462;51.422;5.514;2022-08-18T00:45:28;19.70;99.90
24226;DHT22;51462;51.422;5.514;2022-08-18T00:47:54;19.70;99.90
24226;DHT22;51462;51.422;5.514;2022-08-18T00:50:24;19.90;99.90
24226;DHT22;51462;51.422;5.514;2022-08-18T00:53:06;19.70;99.90
24226;DHT22;51462;51.422;5.514;2022-08-18T00:55:33;19.60;99.90
24226;DHT22;51462;51.422;5.514;2022-08-18T00:58:06;19.80;99.90
24226;DHT22;51462;51.422;5.514;2022-08-18T01:00:33;19.80;99.90
24226;DHT22;51462;51.422;5.514;2022-08-18T01:03:03;19.60;99.90
24226;DHT22;51462;51.422;5.514;2022-08-18T01:05:35;19.60;99.90
24226;DHT22;51462;51.422;5.514;2022-08-18T01:08:06;19.70;99.90
24226;DHT22;51462;51.422;5.514;2022-08-18T01:10:36;19.60;99.90
24226;DHT22;51462;51.422;5.514;2022-08-18T01:13:03;19.60;99.90
24226;DHT22;51462;51.422;5.514;2022-08-18T01:15:29;19.70;99.90
24226;DHT22;51462;51.422;5.514;2022-08-18T01:17:56;19.70;99.90
24226;DHT22;51462;51.422;5.514;2022-08-18T01:21:07;19.70;99.90
24226;DHT22;51462;51.422;5.514;2022-08-18T01:23:54;19.60;99.90
24226;DHT22;51462;51.422;5.514;2022-08-18T01:26:21;19.50;99.90
24226;DHT22;51462;51.422;5.514;2022-08-18T01:28:48;19.70;99.90
24226;DHT22;51462;51.422;5.514;2022-08-18T01:31:38;19.70;99.90
24226;DHT22;51462;51.422;5.514;2022-08-18T01:34:09;19.70;99.90
24226;DHT22;51462;51.422;5.514;2022-08-18T01:36:37;19.80;99.90
24226;DHT22;51462;51.422;5.514;2022-08-18T01:39:07;19.80;99.90
24226;DHT22;51462;51.422;5.514;2022-08-18T01:41:34;19.90;99.90
24226;DHT22;51462;51.422;5.514;2022-08-18T01:44:00;20.10;99.90
24226;DHT22;51462;51.422;5.514;2022-08-18T01:46:28;20.00;99.90
24226;DHT22;51462;51.422;5.514;2022-08-18T01:48:55;19.90;99.90
24226;DHT22;51462;51.422;5.514;2022-08-18T01:51:23;19.60;99.90
24226;DHT22;51462;51.422;5.514;2022-08-18T01:53:48;19.70;99.90
24226;DHT22;51462;51.422;5.514;2022-08-18T01:56:14;19.70;99.90
24226;DHT22;51462;51.422;5.514;2022-08-18T01:58:42;19.70;99.90
24226;DHT22;51462;51.422;5.514;2022-08-18T02:01:08;19.60;99.90
24226;DHT22;51462;51.422;5.514;2022-08-18T02:03:39;19.70;99.90
24226;DHT22;51462;51.422;5.514;2022-08-18T02:06:09;19.60;99.90
24226;DHT22;51462;51.422;5.514;2022-08-18T02:08:35;19.50;99.90
24226;DHT22;51462;51.422;5.514;2022-08-18T02:11:01;19.60;99.90
24226;DHT22;51462;51.422;5.514;2022-08-18T02:13:28;19.40;99.90
24226;DHT22;51462;51.422;5.514;2022-08-18T02:15:54;19.30;99.90
24226;DHT22;51462;51.422;5.514;2022-08-18T02:18:25;19.40;99.90
24226;DHT22;51462;51.422;5.514;2022-08-18T02:20:55;19.50;99.90
24226;DHT22;51462;51.422;5.514;2022-08-18T02:23:21;19.50;99.90
24226;DHT22;51462;51.422;5.514;2022-08-18T02:25:47;19.50;99.90
24226;DHT22;51462;51.422;5.514;2022-08-18T02:28:13;19.40;99.90
24226;DHT22;51462;51.422;5.514;2022-08-18T02:30:39;19.40;99.90
24226;DHT22;51462;51.422;5.514;2022-08-18T02:33:07;19.40;99.90
24226;DHT22;51462;51.422;5.514;2022-08-18T02:35:33;19.40;99.90
24226;DHT22;51462;51.422;5.514;2022-08-18T02:37:59;19.50;99.90
24226;DHT22;51462;51.422;5.514;2022-08-18T02:40:26;19.40;99.90
24226;DHT22;51462;51.422;5.514;2022-08-18T02:42:52;19.40;99.90
24226;DHT22;51462;51.422;5.514;2022-08-18T02:45:18;19.50;99.90
24226;DHT22;51462;51.422;5.514;2022-08-18T02:47:44;19.60;99.90
24226;DHT22;51462;51.422;5.514;2022-08-18T02:50:15;19.50;99.90
24226;DHT22;51462;51.422;5.514;2022-08-18T02:52:41;19.60;99.90
24226;DHT22;51462;51.422;5.514;2022-08-18T02:55:07;19.50;99.90
24226;DHT22;51462;51.422;5.514;2022-08-18T02:57:33;19.50;99.90
24226;DHT22;51462;51.422;5.514;2022-08-18T02:59:59;19.50;99.90
24226;DHT22;51462;51.422;5.514;2022-08-18T03:02:25;19.50;99.90
24226;DHT22;51462;51.422;5.514;2022-08-18T03:04:51;19.40;99.90
24226;DHT22;51462;51.422;5.514;2022-08-18T03:07:17;19.40;99.90
24226;DHT22;51462;51.422;5.514;2022-08-18T03:09:42;19.40;99.90
24226;DHT22;51462;51.422;5.514;2022-08-18T03:12:09;19.30;99.90
24226;DHT22;51462;51.422;5.514;2022-08-18T03:14:36;19.40;99.90
24226;DHT22;51462;51.422;5.514;2022-08-18T03:17:06;19.40;99.90
24226;DHT22;51462;51.422;5.514;2022-08-18T03:19:33;19.40;99.90
24226;DHT22;51462;51.422;5.514;2022-08-18T03:21:59;19.40;99.90
24226;DHT22;51462;51.422;5.514;2022-08-18T03:24:28;19.40;99.90
24226;DHT22;51462;51.422;5.514;2022-08-18T03:26:54;19.40;99.90
24226;DHT22;51462;51.422;5.514;2022-08-18T03:29:23;19.40;99.90
24226;DHT22;51462;51.422;5.514;2022-08-18T03:31:49;19.30;99.90
24226;DHT22;51462;51.422;5.514;2022-08-18T03:34:18;19.40;99.90
24226;DHT22;51462;51.422;5.514;2022-08-18T03:36:44;19.30;99.90
24226;DHT22;51462;51.422;5.514;2022-08-18T03:39:11;19.20;99.90
24226;DHT22;51462;51.422;5.514;2022-08-18T03:41:39;19.20;99.90
24226;DHT22;51462;51.422;5.514;2022-08-18T03:44:06;19.20;99.90
24226;DHT22;51462;51.422;5.514;2022-08-18T03:46:32;19.10;99.90
24226;DHT22;51462;51.422;5.514;2022-08-18T03:48:58;19.20;99.90
24226;DHT22;51462;51.422;5.514;2022-08-18T03:51:26;19.30;99.90
24226;DHT22;51462;51.422;5.514;2022-08-18T03:53:55;19.30;99.90
24226;DHT22;51462;51.422;5.514;2022-08-18T03:56:26;19.20;99.90
24226;DHT22;51462;51.422;5.514;2022-08-18T03:58:54;19.20;99.90
24226;DHT22;51462;51.422;5.514;2022-08-18T04:01:22;19.10;99.90
24226;DHT22;51462;51.422;5.514;2022-08-18T04:03:53;19.10;99.90
24226;DHT22;51462;51.422;5.514;2022-08-18T04:06:24;19.00;99.90
24226;DHT22;51462;51.422;5.514;2022-08-18T04:08:55;18.90;99.90
24226;DHT22;51462;51.422;5.514;2022-08-18T04:11:22;18.90;99.90
24226;DHT22;51462;51.422;5.514;2022-08-18T04:13:48;18.90;99.90
24226;DHT22;51462;51.422;5.514;2022-08-18T04:16:14;18.90;99.90
24226;DHT22;51462;51.422;5.514;2022-08-18T04:18:39;18.90;99.90
24226;DHT22;51462;51.422;5.514;2022-08-18T04:21:11;18.90;99.90
24226;DHT22;51462;51.422;5.514;2022-08-18T04:23:38;18.80;99.90
24226;DHT22;51462;51.422;5.514;2022-08-18T04:26:06;18.90;99.90
24226;DHT22;51462;51.422;5.514;2022-08-18T04:28:32;19.00;99.90
24226;DHT22;51462;51.422;5.514;2022-08-18T04:30:58;18.90;99.90
24226;DHT22;51462;51.422;5.514;2022-08-18T04:33:25;18.90;99.90
24226;DHT22;51462;51.422;5.514;2022-08-18T04:35:52;18.90;99.90
24226;DHT22;51462;51.422;5.514;2022-08-18T04:38:18;18.90;99.90
24226;DHT22;51462;51.422;5.514;2022-08-18T04:40:44;18.70;99.90
24226;DHT22;51462;51.422;5.514;2022-08-18T04:43:09;18.90;99.90
24226;DHT22;51462;51.422;5.514;2022-08-18T04:45:46;18.90;99.90
24226;DHT22;51462;51.422;5.514;2022-08-18T04:48:12;19.00;99.90
24226;DHT22;51462;51.422;5.514;2022-08-18T04:50:40;19.00;99.90
24226;DHT22;51462;51.422;5.514;2022-08-18T04:53:06;18.80;99.90
24226;DHT22;51462;51.422;5.514;2022-08-18T04:55:52;18.80;99.90
24226;DHT22;51462;51.422;5.514;2022-08-18T04:58:20;18.70;99.90
24226;DHT22;51462;51.422;5.514;2022-08-18T05:00:47;18.70;99.90
24226;DHT22;51462;51.422;5.514;2022-08-18T05:03:20;18.60;99.90
24226;DHT22;51462;51.422;5.514;2022-08-18T05:05:55;18.50;99.90
24226;DHT22;51462;51.422;5.514;2022-08-18T05:08:25;18.70;99.90
24226;DHT22;51462;51.422;5.514;2022-08-18T05:10:55;18.70;99.90
24226;DHT22;51462;51.422;5.514;2022-08-18T05:13:22;18.70;99.90
24226;DHT22;51462;51.422;5.514;2022-08-18T05:15:57;18.80;99.90
24226;DHT22;51462;51.422;5.514;2022-08-18T05:18:27;19.00;99.90
24226;DHT22;51462;51.422;5.514;2022-08-18T05:20:54;18.80;99.90
24226;DHT22;51462;51.422;5.514;2022-08-18T05:23:20;18.60;99.90
24226;DHT22;51462;51.422;5.514;2022-08-18T05:25:46;18.60;99.90
24226;DHT22;51462;51.422;5.514;2022-08-18T05:28:12;18.60;99.90
24226;DHT22;51462;51.422;5.514;2022-08-18T05:30:38;18.60;99.90
24226;DHT22;51462;51.422;5.514;2022-08-18T05:33:04;18.60;99.90
24226;DHT22;51462;51.422;5.514;2022-08-18T05:35:36;18.70;99.90
24226;DHT22;51462;51.422;5.514;2022-08-18T05:38:26;18.90;99.90
24226;DHT22;51462;51.422;5.514;2022-08-18T05:41:05;19.00;99.90
24226;DHT22;51462;51.422;5.514;2022-08-18T05:43:31;19.00;99.90
24226;DHT22;51462;51.422;5.514;2022-08-18T05:45:59;18.80;99.90
24226;DHT22;51462;51.422;5.514;2022-08-18T05:48:26;18.70;99.90
24226;DHT22;51462;51.422;5.514;2022-08-18T05:50:53;18.80;99.90
24226;DHT22;51462;51.422;5.514;2022-08-18T05:53:20;19.00;99.90
24226;DHT22;51462;51.422;5.514;2022-08-18T05:56:08;19.00;99.90
24226;DHT22;51462;51.422;5.514;2022-08-18T05:58:54;18.90;99.90
24226;DHT22;51462;51.422;5.514;2022-08-18T06:01:32;19.10;99.90
24226;DHT22;51462;51.422;5.514;2022-08-18T06:04:08;19.30;99.90
24226;DHT22;51462;51.422;5.514;2022-08-18T06:06:40;19.10;99.90
24226;DHT22;51462;51.422;5.514;2022-08-18T06:09:18;19.00;99.90
24226;DHT22;51462;51.422;5.514;2022-08-18T06:11:47;19.10;99.90
24226;DHT22;51462;51.422;5.514;2022-08-18T06:14:13;19.00;99.90
24226;DHT22;51462;51.422;5.514;2022-08-18T06:16:51;19.00;99.90
24226;DHT22;51462;51.422;5.514;2022-08-18T06:19:44;19.00;99.90
24226;DHT22;51462;51.422;5.514;2022-08-18T06:25:25;19.30;99.90
24226;DHT22;51462;51.422;5.514;2022-08-18T06:28:03;19.40;99.90
24226;DHT22;51462;51.422;5.514;2022-08-18T06:30:46;19.40;99.90
24226;DHT22;51462;51.422;5.514;2022-08-18T06:35:58;19.50;99.90
24226;DHT22;51462;51.422;5.514;2022-08-18T06:38:49;19.50;99.90
24226;DHT22;51462;51.422;5.514;2022-08-18T06:41:22;19.40;99.90
24226;DHT22;51462;51.422;5.514;2022-08-18T06:49:42;19.40;99.90
24226;DHT22;51462;51.422;5.514;2022-08-18T06:52:31;19.50;99.90
24226;DHT22;51462;51.422;5.514;2022-08-18T06:55:00;19.60;99.90
24226;DHT22;51462;51.422;5.514;2022-08-18T06:57:53;19.60;99.90
24226;DHT22;51462;51.422;5.514;2022-08-18T07:00:26;19.40;99.90
24226;DHT22;51462;51.422;5.514;2022-08-18T07:03:14;19.40;99.90
24226;DHT22;51462;51.422;5.514;2022-08-18T07:08:43;19.30;99.90
24226;DHT22;51462;51.422;5.514;2022-08-18T07:11:31;19.20;99.90
24226;DHT22;51462;51.422;5.514;2022-08-18T07:14:20;19.40;99.90
24226;DHT22;51462;51.422;5.514;2022-08-18T07:16:46;19.50;99.90
24226;DHT22;51462;51.422;5.514;2022-08-18T07:19:15;19.60;99.90
24226;DHT22;51462;51.422;5.514;2022-08-18T07:21:42;19.60;99.90
24226;DHT22;51462;51.422;5.514;2022-08-18T07:24:44;19.50;99.90
24226;DHT22;51462;51.422;5.514;2022-08-18T07:27:20;19.50;99.90
24226;DHT22;51462;51.422;5.514;2022-08-18T07:32:49;19.70;99.90
24226;DHT22;51462;51.422;5.514;2022-08-18T07:35:24;19.90;99.90
24226;DHT22;51462;51.422;5.514;2022-08-18T07:38:02;20.10;99.90
24226;DHT22;51462;51.422;5.514;2022-08-18T07:40:42;20.00;99.90
24226;DHT22;51462;51.422;5.514;2022-08-18T07:43:14;20.00;99.90
24226;DHT22;51462;51.422;5.514;2022-08-18T07:45:44;20.10;99.90
24226;DHT22;51462;51.422;5.514;2022-08-18T07:48:27;20.10;99.90
24226;DHT22;51462;51.422;5.514;2022-08-18T07:56:41;20.20;99.90
24226;DHT22;51462;51.422;5.514;2022-08-18T07:59:18;20.40;99.90
24226;DHT22;51462;51.422;5.514;2022-08-18T08:01:59;20.50;99.90
24226;DHT22;51462;51.422;5.514;2022-08-18T08:07:28;20.60;99.90
24226;DHT22;51462;51.422;5.514;2022-08-18T08:10:24;20.60;99.90
24226;DHT22;51462;51.422;5.514;2022-08-18T08:20:58;20.40;99.90
24226;DHT22;51462;51.422;5.514;2022-08-18T08:23:50;20.60;99.90
24226;DHT22;51462;51.422;5.514;2022-08-18T08:26:48;20.80;99.90
24226;DHT22;51462;51.422;5.514;2022-08-18T08:29:46;20.80;99.90
24226;DHT22;51462;51.422;5.514;2022-08-18T08:35:12;21.10;99.90
24226;DHT22;51462;51.422;5.514;2022-08-18T08:40:25;21.10;99.90
24226;DHT22;51462;51.422;5.514;2022-08-18T08:43:03;20.90;99.90
24226;DHT22;51462;51.422;5.514;2022-08-18T08:45:35;21.00;99.90
24226;DHT22;51462;51.422;5.514;2022-08-18T08:48:22;21.00;99.90
24226;DHT22;51462;51.422;5.514;2022-08-18T08:50:50;21.20;99.90
24226;DHT22;51462;51.422;5.514;2022-08-18T08:53:37;21.20;99.90
24226;DHT22;51462;51.422;5.514;2022-08-18T08:56:11;21.10;99.90
24226;DHT22;51462;51.422;5.514;2022-08-18T08:58:43;21.10;99.90
24226;DHT22;51462;51.422;5.514;2022-08-18T09:04:03;21.30;99.90
24226;DHT22;51462;51.422;5.514;2022-08-18T09:12:31;21.50;99.90
24226;DHT22;51462;51.422;5.514;2022-08-18T09:18:16;21.80;99.90
24226;DHT22;51462;51.422;5.514;2022-08-18T09:23:34;21.80;99.90
24226;DHT22;51462;51.422;5.514;2022-08-18T09:27:11;21.90;99.90
24226;DHT22;51462;51.422;5.514;2022-08-18T09:29:25;21.90;99.90
24226;DHT22;51462;51.422;5.514;2022-08-18T09:37:58;21.80;99.90
24226;DHT22;51462;51.422;5.514;2022-08-18T09:40:51;21.70;99.90
24226;DHT22;51462;51.422;5.514;2022-08-18T09:44:03;21.50;99.90
24226;DHT22;51462;51.422;5.514;2022-08-18T09:51:49;22.20;99.90
24226;DHT22;51462;51.422;5.514;2022-08-18T09:54:17;22.30;99.90
24226;DHT22;51462;51.422;5.514;2022-08-18T10:02:10;22.50;99.90
24226;DHT22;51462;51.422;5.514;2022-08-18T10:04:38;22.60;99.90
24226;DHT22;51462;51.422;5.514;2022-08-18T10:07:38;22.80;99.90
24226;DHT22;51462;51.422;5.514;2022-08-18T10:10:31;22.80;99.90
24226;DHT22;51462;51.422;5.514;2022-08-18T10:23:52;22.80;99.90
24226;DHT22;51462;51.422;5.514;2022-08-18T10:28:57;22.80;99.90
24226;DHT22;51462;51.422;5.514;2022-08-18T10:31:24;22.90;99.90
24226;DHT22;51462;51.422;5.514;2022-08-18T10:34:06;22.90;99.90
24226;DHT22;51462;51.422;5.514;2022-08-18T10:36:38;23.00;99.90
24226;DHT22;51462;51.422;5.514;2022-08-18T10:39:11;23.00;99.90
24226;DHT22;51462;51.422;5.514;2022-08-18T10:41:48;23.10;99.90
24226;DHT22;51462;51.422;5.514;2022-08-18T10:44:15;23.30;99.90
24226;DHT22;51462;51.422;5.514;2022-08-18T10:46:42;23.30;99.90
24226;DHT22;51462;51.422;5.514;2022-08-18T10:51:49;23.40;99.90
24226;DHT22;51462;51.422;5.514;2022-08-18T10:54:32;23.40;99.90
24226;DHT22;51462;51.422;5.514;2022-08-18T10:57:25;23.50;99.90
24226;DHT22;51462;51.422;5.514;2022-08-18T11:00:05;23.30;99.90
24226;DHT22;51462;51.422;5.514;2022-08-18T11:05:34;23.60;99.90
24226;DHT22;51462;51.422;5.514;2022-08-18T11:08:04;23.60;99.90
24226;DHT22;51462;51.422;5.514;2022-08-18T11:10:48;23.70;99.90
24226;DHT22;51462;51.422;5.514;2022-08-18T11:16:34;24.00;99.90
24226;DHT22;51462;51.422;5.514;2022-08-18T11:19:08;24.10;99.90
24226;DHT22;51462;51.422;5.514;2022-08-18T11:26:51;24.70;99.90
24226;DHT22;51462;51.422;5.514;2022-08-18T11:29:33;25.20;99.90
24226;DHT22;51462;51.422;5.514;2022-08-18T11:40:00;25.20;99.90
24226;DHT22;51462;51.422;5.514;2022-08-18T11:42:29;25.40;99.90
24226;DHT22;51462;51.422;5.514;2022-08-18T11:45:04;25.40;99.90
24226;DHT22;51462;51.422;5.514;2022-08-18T11:47:29;25.30;99.90
24226;DHT22;51462;51.422;5.514;2022-08-18T11:50:09;25.60;99.90
24226;DHT22;51462;51.422;5.514;2022-08-18T11:52:52;25.70;99.90
24226;DHT22;51462;51.422;5.514;2022-08-18T11:55:29;25.80;99.90
24226;DHT22;51462;51.422;5.514;2022-08-18T11:57:57;25.90;99.90
24226;DHT22;51462;51.422;5.514;2022-08-18T12:05:50;26.00;99.90
24226;DHT22;51462;51.422;5.514;2022-08-18T12:08:50;26.00;99.90
24226;DHT22;51462;51.422;5.514;2022-08-18T12:11:19;26.50;99.90
24226;DHT22;51462;51.422;5.514;2022-08-18T12:14:49;26.90;99.90
24226;DHT22;51462;51.422;5.514;2022-08-18T12:16:45;27.10;99.90
24226;DHT22;51462;51.422;5.514;2022-08-18T12:19:13;27.40;99.90
24226;DHT22;51462;51.422;5.514;2022-08-18T12:21:45;27.30;99.90
24226;DHT22;51462;51.422;5.514;2022-08-18T12:24:30;27.20;99.90
24226;DHT22;51462;51.422;5.514;2022-08-18T12:26:57;27.20;99.90
24226;DHT22;51462;51.422;5.514;2022-08-18T12:29:24;27.10;99.90
24226;DHT22;51462;51.422;5.514;2022-08-18T12:31:52;27.30;99.90
24226;DHT22;51462;51.422;5.514;2022-08-18T12:34:20;27.10;99.90
24226;DHT22;51462;51.422;5.514;2022-08-18T12:36:49;27.20;99.90
24226;DHT22;51462;51.422;5.514;2022-08-18T12:39:16;27.20;99.90
24226;DHT22;51462;51.422;5.514;2022-08-18T12:41:41;27.20;99.90
24226;DHT22;51462;51.422;5.514;2022-08-18T12:44:07;27.10;99.90
24226;DHT22;51462;51.422;5.514;2022-08-18T12:46:33;27.40;99.90
24226;DHT22;51462;51.422;5.514;2022-08-18T12:48:58;27.70;99.90
24226;DHT22;51462;51.422;5.514;2022-08-18T12:51:25;27.50;99.90
24226;DHT22;51462;51.422;5.514;2022-08-18T12:53:51;27.60;99.90
24226;DHT22;51462;51.422;5.514;2022-08-18T12:56:25;27.20;99.90
24226;DHT22;51462;51.422;5.514;2022-08-18T12:58:51;27.60;99.90
24226;DHT22;51462;51.422;5.514;2022-08-18T13:01:18;27.90;99.90
24226;DHT22;51462;51.422;5.514;2022-08-18T13:03:45;27.80;99.90
24226;DHT22;51462;51.422;5.514;2022-08-18T13:06:12;27.50;99.90
24226;DHT22;51462;51.422;5.514;2022-08-18T13:08:38;27.50;99.90
24226;DHT22;51462;51.422;5.514;2022-08-18T13:11:04;27.50;99.90
24226;DHT22;51462;51.422;5.514;2022-08-18T13:13:38;27.40;99.90
24226;DHT22;51462;51.422;5.514;2022-08-18T13:16:05;26.90;99.90
24226;DHT22;51462;51.422;5.514;2022-08-18T13:18:32;27.10;99.90
24226;DHT22;51462;51.422;5.514;2022-08-18T13:20:58;27.30;99.90
24226;DHT22;51462;51.422;5.514;2022-08-18T13:23:24;27.30;99.90
24226;DHT22;51462;51.422;5.514;2022-08-18T13:25:52;27.10;99.90
24226;DHT22;51462;51.422;5.514;2022-08-18T13:28:17;27.40;99.90
24226;DHT22;51462;51.422;5.514;2022-08-18T13:30:43;27.50;99.90
24226;DHT22;51462;51.422;5.514;2022-08-18T13:33:10;27.40;99.90
24226;DHT22;51462;51.422;5.514;2022-08-18T13:35:35;27.30;99.90
24226;DHT22;51462;51.422;5.514;2022-08-18T13:38:02;27.20;99.90
24226;DHT22;51462;51.422;5.514;2022-08-18T13:40:29;26.80;99.90
24226;DHT22;51462;51.422;5.514;2022-08-18T13:42:55;27.00;99.90
24226;DHT22;51462;51.422;5.514;2022-08-18T13:45:21;27.20;99.90
24226;DHT22;51462;51.422;5.514;2022-08-18T13:47:47;27.20;99.90
24226;DHT22;51462;51.422;5.514;2022-08-18T13:50:14;26.90;99.90
24226;DHT22;51462;51.422;5.514;2022-08-18T13:52:40;26.70;99.90
24226;DHT22;51462;51.422;5.514;2022-08-18T13:55:09;26.90;99.90
24226;DHT22;51462;51.422;5.514;2022-08-18T13:57:37;27.00;99.90
24226;DHT22;51462;51.422;5.514;2022-08-18T14:00:05;26.90;99.90
24226;DHT22;51462;51.422;5.514;2022-08-18T14:02:32;26.80;99.90
24226;DHT22;51462;51.422;5.514;2022-08-18T14:04:58;26.80;99.90
24226;DHT22;51462;51.422;5.514;2022-08-18T14:07:24;26.80;99.90
24226;DHT22;51462;51.422;5.514;2022-08-18T14:09:49;27.30;99.90
24226;DHT22;51462;51.422;5.514;2022-08-18T14:12:20;27.20;99.90
24226;DHT22;51462;51.422;5.514;2022-08-18T14:14:46;27.70;99.90
24226;DHT22;51462;51.422;5.514;2022-08-18T14:17:12;28.60;99.90
24226;DHT22;51462;51.422;5.514;2022-08-18T14:19:37;28.20;99.90
24226;DHT22;51462;51.422;5.514;2022-08-18T14:22:22;28.60;99.90
24226;DHT22;51462;51.422;5.514;2022-08-18T14:25:06;29.70;99.90
24226;DHT22;51462;51.422;5.514;2022-08-18T14:27:50;30.50;99.90
24226;DHT22;51462;51.422;5.514;2022-08-18T14:30:16;30.20;99.90
24226;DHT22;51462;51.422;5.514;2022-08-18T14:32:44;30.60;99.90
24226;DHT22;51462;51.422;5.514;2022-08-18T14:35:12;30.40;99.90
24226;DHT22;51462;51.422;5.514;2022-08-18T14:37:40;30.30;99.90
24226;DHT22;51462;51.422;5.514;2022-08-18T14:40:06;30.30;99.90
24226;DHT22;51462;51.422;5.514;2022-08-18T14:42:32;30.40;99.90
24226;DHT22;51462;51.422;5.514;2022-08-18T14:44:58;30.40;99.90
24226;DHT22;51462;51.422;5.514;2022-08-18T14:47:27;29.70;99.90
24226;DHT22;51462;51.422;5.514;2022-08-18T14:49:54;30.00;99.90
24226;DHT22;51462;51.422;5.514;2022-08-18T14:52:22;30.00;99.90
24226;DHT22;51462;51.422;5.514;2022-08-18T14:54:48;30.60;99.90
24226;DHT22;51462;51.422;5.514;2022-08-18T14:57:15;30.50;99.90
24226;DHT22;51462;51.422;5.514;2022-08-18T14:59:41;30.40;99.90
24226;DHT22;51462;51.422;5.514;2022-08-18T15:02:09;30.40;99.90
24226;DHT22;51462;51.422;5.514;2022-08-18T15:04:36;30.60;99.90
24226;DHT22;51462;51.422;5.514;2022-08-18T15:07:02;30.00;99.90
24226;DHT22;51462;51.422;5.514;2022-08-18T15:09:28;30.60;99.90
24226;DHT22;51462;51.422;5.514;2022-08-18T15:11:58;30.70;99.90
24226;DHT22;51462;51.422;5.514;2022-08-18T15:14:28;31.00;99.90
24226;DHT22;51462;51.422;5.514;2022-08-18T15:16:56;30.50;99.90
24226;DHT22;51462;51.422;5.514;2022-08-18T15:19:22;30.50;99.90
24226;DHT22;51462;51.422;5.514;2022-08-18T15:21:48;30.60;99.90
24226;DHT22;51462;51.422;5.514;2022-08-18T15:24:32;30.90;99.90
24226;DHT22;51462;51.422;5.514;2022-08-18T15:27:16;31.40;99.90
24226;DHT22;51462;51.422;5.514;2022-08-18T15:29:42;31.10;99.90
24226;DHT22;51462;51.422;5.514;2022-08-18T15:32:09;31.20;99.90
24226;DHT22;51462;51.422;5.514;2022-08-18T15:34:34;30.80;99.90
24226;DHT22;51462;51.422;5.514;2022-08-18T15:37:00;31.00;99.90
24226;DHT22;51462;51.422;5.514;2022-08-18T15:39:26;31.10;99.90
24226;DHT22;51462;51.422;5.514;2022-08-18T15:41:52;31.30;99.90
24226;DHT22;51462;51.422;5.514;2022-08-18T15:44:20;31.50;99.90
24226;DHT22;51462;51.422;5.514;2022-08-18T15:46:46;31.30;99.90
24226;DHT22;51462;51.422;5.514;2022-08-18T15:49:13;31.50;99.90
24226;DHT22;51462;51.422;5.514;2022-08-18T15:51:39;31.30;99.90
24226;DHT22;51462;51.422;5.514;2022-08-18T15:54:07;31.30;99.90
24226;DHT22;51462;51.422;5.514;2022-08-18T15:56:33;31.20;99.90
24226;DHT22;51462;51.422;5.514;2022-08-18T15:58:59;31.80;99.90
24226;DHT22;51462;51.422;5.514;2022-08-18T16:01:32;31.90;99.90
24226;DHT22;51462;51.422;5.514;2022-08-18T16:04:00;31.60;99.90
24226;DHT22;51462;51.422;5.514;2022-08-18T16:06:27;31.80;99.90
24226;DHT22;51462;51.422;5.514;2022-08-18T16:08:53;31.60;99.70
24226;DHT22;51462;51.422;5.514;2022-08-18T16:11:19;31.60;99.90
24226;DHT22;51462;51.422;5.514;2022-08-18T16:13:47;31.90;99.60
24226;DHT22;51462;51.422;5.514;2022-08-18T16:16:16;32.40;99.30
24226;DHT22;51462;51.422;5.514;2022-08-18T16:18:41;31.90;99.80
24226;DHT22;51462;51.422;5.514;2022-08-18T16:21:14;31.40;99.50
24226;DHT22;51462;51.422;5.514;2022-08-18T16:23:42;31.30;99.90
24226;DHT22;51462;51.422;5.514;2022-08-18T16:26:09;31.10;99.90
24226;DHT22;51462;51.422;5.514;2022-08-18T16:28:39;31.20;99.90
24226;DHT22;51462;51.422;5.514;2022-08-18T16:31:04;30.60;99.90
24226;DHT22;51462;51.422;5.514;2022-08-18T16:33:30;31.10;99.90
24226;DHT22;51462;51.422;5.514;2022-08-18T16:36:04;31.40;99.90
24226;DHT22;51462;51.422;5.514;2022-08-18T16:38:31;31.00;99.90
24226;DHT22;51462;51.422;5.514;2022-08-18T16:41:06;31.00;99.90
24226;DHT22;51462;51.422;5.514;2022-08-18T16:43:34;31.10;99.90
24226;DHT22;51462;51.422;5.514;2022-08-18T16:46:00;30.40;99.90
24226;DHT22;51462;51.422;5.514;2022-08-18T16:48:27;30.20;99.90
24226;DHT22;51462;51.422;5.514;2022-08-18T16:50:53;30.80;99.90
24226;DHT22;51462;51.422;5.514;2022-08-18T16:53:19;30.80;99.90
24226;DHT22;51462;51.422;5.514;2022-08-18T16:55:45;30.60;99.90
24226;DHT22;51462;51.422;5.514;2022-08-18T16:58:10;30.60;99.90
24226;DHT22;51462;51.422;5.514;2022-08-18T17:00:55;30.80;99.90
24226;DHT22;51462;51.422;5.514;2022-08-18T17:03:40;31.10;99.90
24226;DHT22;51462;51.422;5.514;2022-08-18T17:06:24;31.50;99.90
24226;DHT22;51462;51.422;5.514;2022-08-18T17:08:55;31.00;99.90
24226;DHT22;51462;51.422;5.514;2022-08-18T17:11:21;30.40;99.90
24226;DHT22;51462;51.422;5.514;2022-08-18T17:13:49;30.70;99.90
24226;DHT22;51462;51.422;5.514;2022-08-18T17:16:16;30.90;99.90
24226;DHT22;51462;51.422;5.514;2022-08-18T17:18:42;30.80;99.90
24226;DHT22;51462;51.422;5.514;2022-08-18T17:21:11;30.50;99.90
24226;DHT22;51462;51.422;5.514;2022-08-18T17:23:38;30.20;99.90
24226;DHT22;51462;51.422;5.514;2022-08-18T17:26:06;30.60;99.90
24226;DHT22;51462;51.422;5.514;2022-08-18T17:28:41;30.40;99.90
24226;DHT22;51462;51.422;5.514;2022-08-18T17:31:08;30.20;99.90
24226;DHT22;51462;51.422;5.514;2022-08-18T17:33:36;29.80;99.90
24226;DHT22;51462;51.422;5.514;2022-08-18T17:36:06;29.30;99.90
24226;DHT22;51462;51.422;5.514;2022-08-18T17:38:56;29.90;99.90
24226;DHT22;51462;51.422;5.514;2022-08-18T17:41:23;29.60;99.90
24226;DHT22;51462;51.422;5.514;2022-08-18T17:43:50;29.20;99.90
24226;DHT22;51462;51.422;5.514;2022-08-18T17:46:28;29.50;99.90